Date,TemperatureHighF,TemperatureAvgF,TemperatureLowF,DewpointHighF,DewpointAvgF,DewpointLowF,HumidityHigh,HumidityAvg,HumidityLow,PressureMaxIn,PressureMinIn,WindSpeedMaxMPH,WindSpeedAvgMPH,GustSpeedMaxMPH,PrecipitationSumIn
2013-1-1,46,39,35,40,37,35,100,92,78,30.32,30.18,4,1,6,0.00
2013-1-2,48,40,35,36,33,31,89,78,62,30.19,30.05,4,2,7,0.00
2013-1-3,51,42,36,50,38,28,100,83,68,30.22,30.00,4,1,7,0.27
2013-1-4,54,47,42,53,47,42,100,100,95,30.25,30.09,0,0,1,0.06
2013-1-5,49,46,44,49,46,44,100,100,100,30.13,30.06,1,0,3,0.22
2013-1-6,50,46,42,50,46,42,100,100,98,30.18,30.08,0,0,0,0.09
2013-1-7,52,50,46,52,50,46,100,100,100,30.20,30.05,0,0,0,0.58
2013-1-8,51,50,49,51,50,49,100,100,100,30.20,29.96,0,0,2,0.05
2013-1-9,51,44,38,51,43,38,100,99,92,29.96,29.86,0,0,0,0.38
2013-1-10,44,40,36,44,39,36,100,99,92,30.12,29.97,0,0,2,0.58
2013-1-11,46,39,32,43,38,32,100,97,82,30.25,30.10,0,0,1,0.12
2013-1-12,42,34,30,37,34,30,100,96,82,30.33,30.23,1,0,3,0.00
2013-1-13,37,32,29,33,31,29,100,96,85,30.42,30.33,2,0,4,0.00
2013-1-14,45,35,29,38,33,28,100,93,76,30.49,30.42,1,0,3,0.00
2013-1-15,48,39,32,42,37,32,100,95,80,30.57,30.48,2,0,6,0.00
2013-1-16,51,41,36,42,37,33,100,86,65,30.53,30.34,3,1,5,0.00
2013-1-17,54,43,37,40,36,32,94,77,57,30.34,30.17,3,1,7,0.00
2013-1-18,56,43,33,46,38,33,100,81,55,30.19,30.14,2,0,5,0.00
2013-1-19,50,40,32,48,39,32,100,98,84,30.24,30.15,0,0,0,0.00
2013-1-20,58,41,30,47,36,30,100,84,50,30.23,30.12,1,0,3,0.00
2013-1-21,59,42,35,43,37,33,100,83,52,30.16,30.02,2,0,5,0.00
2013-1-22,56,44,36,43,38,34,100,80,56,30.03,29.85,2,0,5,0.00
2013-1-23,44,42,38,44,40,38,100,95,83,30.13,29.81,1,0,3,0.40
2013-1-24,53,44,36,52,44,36,100,100,94,30.14,30.04,2,0,3,0.17
2013-1-25,50,47,43,50,47,43,100,100,100,30.10,29.95,0,0,0,0.49
2013-1-26,50,44,40,47,43,40,100,99,89,30.08,29.93,0,0,0,0.60
2013-1-27,44,42,37,44,42,37,100,100,100,30.16,30.05,0,0,0,0.69
2013-1-28,47,45,43,47,45,43,100,100,100,30.28,30.10,0,0,1,0.38
2013-1-29,49,46,43,49,46,43,100,100,100,30.49,30.28,0,0,0,0.18
2013-1-30,50,46,43,50,46,43,100,100,100,30.50,30.43,0,0,0,0.13
2013-1-31,56,47,42,54,47,42,100,98,86,30.42,30.30,1,0,1,0.00
2013-2-1,56,46,39,51,45,39,100,96,83,30.30,30.15,2,1,5,0.00
2013-2-2,58,49,43,52,47,43,100,95,69,30.29,30.16,2,0,3,0.00
2013-2-3,52,48,46,49,47,46,100,98,90,30.29,30.19,0,0,0,0.00
2013-2-4,51,46,41,49,46,41,100,99,93,30.19,29.96,0,0,0,0.00
2013-2-5,51,47,44,51,47,44,100,100,97,30.05,29.91,0,0,1,0.39
2013-2-6,51,46,40,50,46,40,100,100,91,30.07,29.83,0,0,1,0.53
2013-2-7,44,41,38,44,41,38,100,100,100,30.08,29.93,0,0,1,0.24
2013-2-8,52,40,33,48,39,33,100,97,82,30.24,30.08,0,0,1,0.00
2013-2-9,50,42,35,48,42,35,100,99,91,30.27,30.22,0,0,0,0.01
2013-2-10,52,46,41,48,45,41,100,97,83,30.28,30.24,1,0,1,0.01
2013-2-11,52,46,42,48,45,42,100,96,79,30.37,30.28,0,0,0,0.08
2013-2-12,53,49,46,53,49,46,100,100,100,30.47,30.38,0,0,0,0.16
2013-2-13,53,49,46,53,49,46,100,100,100,30.47,30.42,0,0,0,0.06
2013-2-14,61,48,42,54,47,42,100,96,71,30.50,30.38,1,0,1,0.00
2013-2-15,67,50,40,54,47,40,100,91,60,30.38,30.15,2,0,7,0.00
2013-2-16,54,48,42,51,47,42,100,98,88,30.28,30.22,0,0,1,0.02
2013-2-17,54,43,35,47,41,35,100,92,64,30.27,30.05,0,0,3,0.02
2013-2-18,49,41,34,46,40,34,100,98,88,30.03,29.69,0,0,0,0.39
2013-2-19,48,42,38,47,42,38,100,99,92,29.97,29.59,0,0,0,0.30
2013-2-20,47,41,34,47,41,34,100,100,97,30.10,29.98,0,0,0,0.13
2013-2-21,45,43,39,45,43,39,100,100,100,30.22,30.10,0,0,0,0.39
2013-2-22,48,45,42,48,45,42,100,100,100,30.19,29.96,1,0,1,0.74
2013-2-23,52,42,37,47,41,37,100,96,73,30.42,30.13,0,0,0,0.29
2013-2-24,54,44,37,46,41,37,100,90,63,30.42,30.09,0,0,3,0.02
2013-2-25,50,44,38,47,43,38,100,96,74,30.37,30.07,0,0,1,0.31
2013-2-26,53,42,35,45,40,35,100,93,66,30.36,30.21,1,0,1,0.01
2013-2-27,52,47,42,51,47,42,100,100,97,30.26,30.18,0,0,1,0.45
2013-2-28,52,51,50,52,51,50,100,100,100,30.44,30.17,0,0,1,0.82
2013-3-1,57,52,49,57,52,49,100,100,100,30.45,30.29,0,0,0,0.02
2013-3-2,53,49,43,53,49,43,100,100,100,30.28,30.18,0,0,0,0.02
2013-3-3,56,44,36,45,40,36,100,89,62,30.27,30.16,2,0,2,0.00
2013-3-4,56,47,38,51,44,38,100,90,78,30.03,29.84,1,0,2,0.00
2013-3-5,45,43,42,45,43,42,100,100,100,29.82,29.56,0,0,1,0.93
2013-3-6,49,44,41,49,44,41,100,100,100,29.91,29.51,0,0,0,0.58
2013-3-7,58,45,36,50,42,36,100,92,64,29.98,29.91,0,0,1,0.01
2013-3-8,55,44,34,50,42,34,100,96,83,30.17,29.97,0,0,1,0.00
2013-3-9,60,45,34,52,43,34,100,93,62,30.45,30.17,0,0,2,0.00
2013-3-10,58,47,36,53,45,36,100,94,65,30.45,30.37,0,0,2,0.01
2013-3-11,59,51,48,56,51,48,100,99,87,30.38,30.21,0,0,1,0.01
2013-3-12,58,49,45,56,49,45,100,99,93,30.20,30.16,0,0,2,0.00
2013-3-13,60,50,45,55,49,45,100,97,82,30.21,30.08,0,0,2,0.00
2013-3-14,58,51,47,54,50,47,100,97,84,30.19,30.07,0,0,3,0.01
2013-3-15,60,52,48,58,52,48,100,100,90,30.20,30.17,0,0,2,0.10
2013-3-16,50,47,43,50,47,43,100,100,100,30.18,30.09,0,0,1,0.28
2013-3-17,54,44,38,48,41,38,100,89,64,30.30,30.19,0,0,2,0.01
2013-3-18,60,46,34,48,41,34,100,83,64,30.25,30.03,1,0,5,0.00
2013-3-19,55,49,45,52,45,38,100,88,70,30.03,29.64,1,0,6,0.66
2013-3-20,52,50,43,52,49,43,100,98,85,30.07,29.58,1,0,7,0.32
2013-3-21,53,45,39,46,42,39,100,91,69,30.33,30.24,0,0,1,0.10
2013-3-22,52,43,36,47,40,36,100,92,68,30.35,30.30,0,0,2,0.12
2013-3-23,55,42,33,43,38,33,100,86,58,30.34,30.20,1,0,5,0.00
2013-3-24,55,46,37,44,40,37,100,84,59,30.20,30.02,0,0,3,0.00
2013-3-25,56,46,39,48,44,39,100,92,70,30.02,29.91,0,0,2,0.00
2013-3-26,55,50,45,52,49,45,100,97,89,29.97,29.90,0,0,1,0.02
2013-3-27,58,51,46,56,51,46,100,99,91,29.95,29.85,0,0,5,0.03
2013-3-28,58,52,46,56,52,46,100,98,92,30.10,29.94,0,0,1,0.01
2013-3-29,70,56,47,60,52,47,100,91,63,30.13,30.06,1,0,3,0.00
2013-3-30,81,60,46,59,53,46,100,80,44,30.08,29.86,2,0,11,0.00
2013-3-31,64,54,48,59,53,48,100,95,78,30.00,29.93,0,0,1,0.01
2013-4-1,55,52,51,55,52,51,100,100,100,30.16,29.99,0,0,3,0.02
2013-4-2,59,51,46,56,51,46,100,99,88,30.19,30.11,0,0,2,0.00
2013-4-3,58,51,44,57,51,44,100,99,91,30.13,29.86,0,0,2,0.00
2013-4-4,56,53,51,56,53,51,100,100,100,29.86,29.67,0,0,5,0.78
2013-4-5,53,52,51,53,52,51,100,100,100,29.96,29.82,1,0,5,0.61
2013-4-6,56,52,49,56,52,49,100,100,100,30.00,29.69,0,0,6,0.70
2013-4-7,54,48,42,52,48,42,100,99,87,29.96,29.67,1,0,6,0.13
2013-4-8,58,47,41,52,46,41,100,95,75,30.26,29.98,0,0,0,0.07
2013-4-9,61,50,42,53,47,42,100,91,70,30.29,30.23,1,0,1,0.00
2013-4-10,57,49,43,55,49,43,100,99,90,30.31,30.20,0,0,0,0.10
2013-4-11,59,49,41,51,46,41,100,93,68,30.33,30.13,0,0,1,0.05
2013-4-12,57,47,38,51,45,38,100,95,80,30.12,29.91,0,0,1,0.11
2013-4-13,54,46,41,47,44,40,100,90,65,30.11,29.98,0,0,0,0.03
2013-4-14,52,45,40,49,44,40,100,97,80,30.09,29.93,0,0,0,0.13
2013-4-15,57,46,40,49,44,40,100,92,65,30.16,29.94,0,0,0,0.23
2013-4-16,60,47,38,50,44,38,100,89,65,30.36,30.16,0,0,0,0.00
2013-4-17,60,49,37,52,45,37,100,88,67,30.46,30.37,0,0,0,0.00
2013-4-18,60,53,46,52,48,46,100,87,61,30.44,30.33,0,0,0,0.00
2013-4-19,53,51,50,53,51,50,100,100,100,30.33,30.22,0,0,1,0.36
2013-4-20,61,52,43,55,50,43,100,93,68,30.33,30.25,0,0,1,0.04
2013-4-21,58,50,42,52,48,42,100,95,79,30.28,30.21,0,0,0,0.00
2013-4-22,74,57,42,51,45,37,100,70,33,30.30,30.20,1,0,3,0.00
2013-4-23,56,49,44,39,36,34,75,62,49,30.23,30.20,1,0,1,0.00
2013-4-30,59,50,41,44,41,38,95,71,55,30.37,30.30,0,0,1,0.00
2013-5-1,69,53,34,49,44,34,100,75,46,30.41,30.30,0,0,0,0.00
2013-5-2,75,57,41,51,47,41,100,74,36,30.32,30.18,0,0,1,0.00
2013-5-3,69,55,40,55,49,40,100,83,57,30.23,30.04,0,0,0,0.00
2013-5-4,86,67,42,56,45,38,100,55,22,30.04,29.73,2,0,6,0.00
2013-5-5,88,67,53,56,48,41,97,56,26,29.79,29.58,3,0,6,0.00
2013-5-6,70,57,48,58,53,48,100,88,62,29.93,29.79,0,0,0,0.00
2013-5-7,60,55,52,56,53,52,100,95,86,30.03,29.91,0,0,0,0.00
2013-5-8,64,56,52,55,53,52,100,92,73,30.13,30.03,0,0,0,0.00
2013-5-9,66,56,51,59,54,51,100,93,71,30.16,30.05,0,0,0,0.00
2013-5-10,58,53,50,56,52,50,100,99,93,30.21,30.14,0,0,0,0.00
2013-5-11,74,59,48,60,53,48,100,82,56,30.21,30.02,0,0,0,0.00
2013-5-12,67,59,54,62,57,54,100,95,80,30.12,30.06,0,0,0,0.08
2013-5-13,59,55,50,59,55,50,100,100,97,30.18,30.04,0,0,0,0.05
2013-5-14,66,56,46,56,50,46,100,85,60,30.18,30.09,0,0,0,0.01
2013-5-15,60,52,47,55,51,47,100,96,77,30.09,29.97,0,0,0,0.03
2013-5-16,61,56,52,58,55,52,100,97,85,29.97,29.91,0,0,0,0.11
2013-5-17,64,56,50,57,53,50,100,91,68,30.08,29.96,0,0,0,0.05
2013-5-18,56,53,50,56,53,50,100,100,100,30.27,30.06,0,0,1,0.06
2013-5-19,66,56,48,58,53,48,100,90,61,30.38,30.27,0,0,1,0.03
2013-5-20,68,55,43,58,51,43,100,87,64,30.29,29.94,0,0,0,0.00
2013-5-21,52,49,44,52,49,44,100,99,90,30.02,29.82,0,0,0,0.78
2013-5-22,50,47,44,50,47,44,100,100,100,30.01,29.94,0,0,0,0.85
2013-5-23,57,50,46,55,50,46,100,99,89,30.01,29.96,0,0,0,0.20
2013-5-24,55,51,48,55,51,48,100,100,95,30.08,29.99,0,0,0,0.03
2013-5-25,63,54,44,56,52,44,100,91,68,30.06,29.92,0,0,0,0.22
2013-5-26,60,55,51,57,54,51,100,98,88,30.05,29.92,0,0,0,0.04
2013-5-27,56,54,52,56,54,52,100,100,100,29.94,29.73,0,0,1,0.77
2013-5-28,62,55,52,57,54,52,100,95,78,29.94,29.71,0,0,0,0.17
2013-5-29,59,54,49,59,54,49,100,100,97,30.06,29.64,0,0,1,0.14
2013-5-30,64,55,48,56,52,48,100,91,66,30.22,30.05,0,0,0,0.00
2013-5-31,68,56,45,59,52,45,100,86,59,30.27,30.18,0,0,1,0.00
2013-6-1,71,58,48,61,54,48,100,88,63,30.20,30.03,0,0,0,0.00
2013-6-2,68,58,50,62,56,50,100,93,75,30.04,30.00,0,0,1,0.01
2013-6-3,68,57,44,59,53,44,100,88,65,30.05,29.96,0,0,0,0.00
2013-6-4,71,56,45,60,41,-100,100,82,61,30.00,29.94,0,-42,0,0.00
2013-6-5,70,59,50,64,57,50,100,94,80,30.04,29.95,0,0,1,0.00
2013-6-6,69,58,51,60,55,51,100,91,69,30.03,29.97,0,0,1,0.00
2013-6-7,70,59,49,60,54,49,100,88,55,30.10,30.03,0,0,1,0.00
2013-6-8,72,56,48,59,35,-100,100,71,59,30.08,30.00,0,-73,1,0.00
2013-6-9,67,49,47,61,15,-100,100,60,61,30.03,29.94,0,-146,2,0.00
2013-6-10,66,49,44,54,23,-100,100,65,60,29.97,29.91,1,-125,2,0.00
2013-6-11,67,55,48,60,49,-100,100,85,63,30.13,29.98,0,0,0,0.00
2013-6-12,63,55,46,58,53,46,100,94,81,30.18,30.11,0,0,0,0.05
2013-6-13,61,55,52,59,55,52,100,98,92,30.27,30.17,0,0,0,0.11
2013-6-14,70,59,49,59,55,49,100,86,63,30.26,29.92,0,0,0,0.00
2013-6-15,62,57,50,60,56,50,100,98,93,30.02,29.89,0,0,0,0.00
2013-6-16,66,58,48,60,55,48,100,90,69,30.10,30.02,0,0,0,0.00
2013-6-17,67,58,50,61,56,50,100,96,70,30.08,29.99,0,0,0,0.05
2013-6-18,63,58,53,60,56,53,100,96,85,29.99,29.94,0,0,1,0.07
2013-6-19,65,58,53,60,56,53,100,95,83,30.09,29.93,0,0,0,0.03
2013-6-20,68,60,54,60,56,54,100,90,70,30.10,30.04,0,0,0,0.01
2013-6-21,73,60,50,60,55,50,100,86,58,30.12,30.05,0,0,0,0.00
2013-6-22,79,62,49,62,58,49,100,86,52,30.06,29.83,0,0,0,0.06
2013-6-23,66,61,56,66,61,56,100,100,100,29.82,29.62,0,0,0,0.23
2013-6-24,60,57,55,60,57,55,100,100,100,29.69,29.63,0,0,0,0.38
2013-6-25,62,59,57,62,59,57,100,100,100,29.81,29.64,0,0,1,0.47
2013-6-26,72,64,59,68,63,59,100,98,88,29.97,29.80,0,0,0,0.17
2013-6-27,72,65,59,69,64,59,100,96,88,30.13,29.94,0,0,0,0.00
2013-6-28,80,68,57,75,64,57,100,88,65,30.11,30.03,0,0,0,0.00
2013-6-29,84,69,59,69,64,59,100,84,55,30.07,29.91,0,0,0,0.00
2013-6-30,75,54,60,69,38,-100,100,82,82,29.93,29.89,0,-154,0,0.00
2013-7-1,75,60,60,71,45,-100,100,83,80,29.99,29.90,0,-98,0,0.00
2013-7-2,75,62,59,68,44,-100,100,83,73,30.03,29.98,1,-44,1,0.00
2013-7-3,74,63,55,64,58,55,100,87,64,30.07,30.01,0,0,1,0.00
2013-7-4,72,58,49,62,43,-100,100,77,62,30.09,29.99,0,-62,1,0.00
2013-7-5,72,58,49,63,46,-100,100,78,64,30.02,29.91,3,-42,3,0.00
2013-7-6,71,45,50,61,14,-100,100,70,73,29.93,29.83,1,-210,7,0.00
2013-7-7,73,60,51,67,54,-100,100,87,64,29.93,29.87,1,-21,2,0.00
2013-7-8,73,60,50,63,56,50,100,89,62,30.01,29.94,0,0,0,0.00
2013-7-9,72,60,50,65,58,50,100,94,78,30.03,29.97,0,0,0,0.00
2013-7-10,70,51,50,62,29,-100,100,70,62,30.02,29.91,0,-146,2,0.00
2013-7-11,71,58,48,56,45,-100,100,75,55,30.02,29.92,1,-54,1,0.00
2013-7-12,71,59,46,62,53,46,100,83,56,30.04,29.95,0,0,1,0.00
2013-7-13,74,59,46,62,50,-100,100,79,51,30.07,29.96,0,-21,2,0.00
2013-7-14,71,58,47,64,54,47,100,87,63,30.03,29.92,0,0,0,0.00
2013-7-15,70,56,46,62,46,-100,100,85,64,29.95,29.75,0,-25,0,0.00
2013-7-16,62,55,49,60,55,49,100,99,91,30.00,29.75,0,0,0,0.00
2013-7-17,70,54,53,61,42,-100,100,83,66,30.14,30.01,0,-89,0,0.00
2013-7-18,71,60,48,62,55,48,100,86,63,30.14,30.05,0,0,0,0.00
2013-7-19,69,59,47,62,55,47,100,89,68,30.10,30.00,0,0,1,0.00
2013-7-20,71,59,52,64,56,52,100,92,66,30.03,29.91,0,0,1,0.00
2013-7-21,72,60,50,63,56,50,100,89,66,29.93,29.85,0,0,2,0.00
2013-7-22,72,59,52,64,50,-100,100,85,64,29.97,29.88,0,-21,0,0.00
2013-7-23,69,54,50,62,48,-100,100,89,69,29.99,29.92,0,-46,1,0.00
2013-7-24,69,57,50,61,54,50,100,92,68,30.00,29.93,0,0,1,0.00
2013-7-25,70,58,50,61,54,50,100,88,64,30.02,29.94,0,0,1,0.00
2013-7-26,69,58,48,62,54,48,100,88,66,30.09,29.99,0,0,2,0.00
2013-7-27,72,60,46,62,55,46,100,86,64,30.13,29.99,1,0,1,0.00
2013-7-28,72,60,46,62,55,46,100,87,63,30.01,29.92,0,0,1,0.00
2013-7-29,70,58,47,63,56,47,100,91,66,30.02,29.92,0,0,0,0.00
2013-7-30,54,54,54,54,54,54,100,100,100,30.03,30.03,0,0,0,0.00
2013-8-7,57,56,54,57,56,54,100,100,100,30.06,30.02,0,0,0,0.00
2013-8-8,68,59,54,64,58,54,100,98,87,30.03,29.89,0,0,0,0.02
2013-8-9,71,59,54,66,58,54,100,97,82,29.94,29.83,0,0,0,0.01
2013-8-10,62,58,54,62,58,54,100,100,100,30.02,29.91,0,0,0,0.02
2013-8-11,66,61,57,63,60,57,100,97,89,30.03,29.98,0,0,0,0.00
2013-8-12,72,61,54,66,58,54,100,93,69,30.03,29.99,0,0,0,0.00
2013-8-13,79,58,49,63,43,-100,100,79,53,30.04,29.92,0,-21,0,0.00
2013-8-14,77,64,55,68,58,-100,100,87,59,29.95,29.89,0,-24,0,0.00
2013-8-15,71,64,61,71,64,61,100,100,99,29.94,29.88,0,0,0,0.10
2013-8-16,72,61,58,68,52,-100,100,89,80,30.02,29.91,0,-42,0,0.00
2013-8-17,73,63,56,69,62,56,100,98,85,30.06,30.00,0,0,0,0.00
2013-8-18,78,65,54,72,61,54,100,89,63,30.07,29.98,0,0,1,0.00
2013-8-19,76,54,54,69,36,-100,100,76,62,30.06,29.99,2,-125,2,0.00
2013-8-20,78,64,50,63,57,50,100,81,54,30.05,29.90,0,0,1,0.00
2013-8-21,74,53,47,63,36,-100,100,73,58,29.92,29.81,0,-125,0,0.00
2013-8-22,66,58,52,64,57,52,100,99,92,29.91,29.84,0,0,0,0.00
2013-8-23,70,55,57,66,40,-100,100,89,87,29.92,29.87,0,-62,0,0.00
2013-8-24,70,59,54,65,54,-100,100,93,84,29.87,29.82,0,-42,0,0.00
2013-8-25,66,51,51,64,41,-100,100,91,91,29.90,29.84,0,-42,0,0.02
2013-8-26,72,57,51,64,44,-100,100,82,58,29.90,29.87,1,-42,1,0.00
2013-8-27,80,55,62,70,36,-100,100,76,62,29.90,29.78,0,-130,0,0.02
2013-8-28,74,66,62,69,65,62,100,96,84,29.85,29.77,0,0,0,0.00
2013-8-29,66,64,63,66,64,63,100,100,100,30.03,29.79,0,0,2,0.42
2013-8-30,79,66,59,71,64,59,100,94,73,30.08,29.97,0,0,0,0.01
2013-8-31,69,61,57,65,60,57,100,98,86,29.97,29.86,0,0,0,0.00
2013-9-1,81,65,52,67,61,52,100,88,55,29.89,29.80,0,0,0,0.03
2013-9-2,74,65,58,69,64,58,100,95,81,29.89,29.82,0,0,0,0.14
2013-9-3,77,64,56,67,61,56,100,90,63,29.96,29.88,0,0,0,0.00
2013-9-4,73,65,60,68,64,60,100,96,80,30.00,29.94,0,0,0,0.00
2013-9-5,65,62,60,65,62,60,100,100,100,30.06,29.96,0,0,0,0.26
2013-9-6,74,64,58,68,63,58,100,95,73,30.12,30.04,0,0,0,0.01
2013-9-7,76,64,54,67,61,54,100,93,74,30.03,29.88,0,0,0,0.00
2013-9-8,80,64,57,70,62,57,100,94,66,29.99,29.91,0,0,0,0.00
2013-9-9,76,63,57,69,62,57,100,95,77,29.95,29.83,0,0,0,0.00
2013-9-10,76,62,53,67,60,53,100,92,65,29.83,29.68,0,0,0,0.00
2013-9-11,64,60,57,64,60,57,100,100,100,29.94,29.79,0,0,0,0.00
2013-9-12,67,61,59,65,61,59,100,100,93,29.95,29.92,0,0,0,0.01
2013-9-13,71,62,56,67,61,56,100,98,87,29.94,29.80,0,0,0,0.01
2013-9-14,66,61,59,66,61,59,100,100,100,29.80,29.72,0,0,0,0.00
2013-9-15,64,59,58,64,59,58,100,100,100,29.86,29.71,0,0,0,0.05
2013-9-16,72,63,58,67,62,58,100,97,83,29.94,29.84,0,0,0,0.06
2013-9-17,70,61,57,65,60,57,100,97,84,29.99,29.82,0,0,0,0.09
2013-9-18,72,61,53,64,59,53,100,92,74,30.04,29.92,0,0,0,0.00
2013-9-19,72,60,52,61,57,52,100,88,66,29.92,29.75,0,0,0,0.00
2013-9-20,63,58,52,61,58,52,100,100,94,29.74,29.62,0,0,0,0.56
2013-9-21,66,59,56,64,59,56,100,99,93,29.77,29.61,0,0,0,0.22
2013-9-22,61,58,57,60,58,57,100,100,95,29.85,29.68,0,0,0,0.50
2013-9-23,63,59,56,63,59,56,100,100,93,29.96,29.85,0,0,0,0.03
2013-9-24,61,55,51,61,55,51,100,100,100,29.94,29.85,0,0,0,0.59
2013-9-25,64,53,48,58,52,48,100,96,73,30.01,29.85,0,0,0,0.14
2013-9-26,67,54,44,61,53,44,100,96,75,30.14,30.01,0,0,0,0.00
2013-9-27,59,53,46,59,53,46,100,100,100,30.14,29.93,0,0,0,0.48
2013-9-28,60,58,53,60,58,53,100,100,100,29.92,29.55,1,0,3,1.29
2013-9-29,60,56,53,60,56,53,100,100,100,29.69,29.47,1,0,2,1.83
2013-9-30,62,55,51,61,55,51,100,100,99,29.98,29.67,0,0,0,0.39
2013-10-1,65,55,46,58,53,46,100,94,65,30.16,29.96,0,0,0,0.12
2013-10-2,62,50,43,59,50,43,100,100,88,30.15,30.05,0,0,0,0.14
2013-10-3,65,52,43,58,50,43,100,94,68,30.34,30.16,0,0,0,0.01
2013-10-4,72,54,43,58,50,43,100,89,58,30.34,30.24,0,0,1,0.00
2013-10-5,77,58,46,61,52,46,100,82,45,30.24,30.05,1,0,2,0.00
2013-10-6,71,58,46,62,54,40,100,90,33,30.05,29.96,0,0,1,0.00
2013-10-7,64,56,50,59,56,50,100,97,82,30.13,29.97,0,0,0,0.21
2013-10-8,55,52,49,55,52,49,100,100,100,30.14,29.98,0,0,0,0.36
2013-10-9,66,53,42,58,51,42,100,93,69,30.00,29.92,0,0,1,0.00
2013-10-10,65,54,46,61,52,46,100,97,84,30.05,29.91,0,0,1,0.00
2013-10-11,65,53,46,55,50,46,100,91,61,30.09,30.05,0,0,0,0.00
2013-10-12,60,50,44,59,50,44,100,100,96,30.09,30.02,0,0,0,0.11
2013-10-13,65,52,46,59,51,46,100,96,76,30.21,30.10,0,0,0,0.01
2013-10-14,69,53,41,57,50,41,100,90,64,30.25,30.16,0,0,0,0.00
2013-10-15,72,53,40,53,47,40,100,84,49,30.18,30.05,1,0,2,0.00
2013-10-16,66,52,41,58,49,41,100,92,67,30.09,30.03,0,0,0,0.00
2013-10-17,66,52,44,60,51,44,100,97,81,30.13,30.05,0,0,0,0.00
2013-10-18,74,60,46,55,52,46,100,78,52,30.06,29.98,2,0,3,0.00
2013-10-19,67,52,43,57,50,43,100,94,67,30.08,30.01,0,0,1,0.00
2013-10-20,61,51,46,58,51,46,100,99,89,30.07,29.99,0,0,0,0.00
2013-10-21,63,51,44,58,50,44,100,98,84,30.00,29.90,0,0,0,0.00
2013-10-22,53,51,49,53,51,49,100,100,100,29.99,29.94,0,0,0,0.01
2013-10-23,54,51,49,54,51,49,100,100,100,29.97,29.93,0,0,0,0.01
2013-10-24,54,52,49,54,52,49,100,100,100,30.05,29.94,0,0,0,0.00
2013-10-25,58,53,51,58,53,51,100,100,100,30.18,30.06,1,0,3,0.00
2013-10-26,62,53,47,58,52,47,100,98,84,30.19,30.11,2,0,5,0.00
2013-10-27,57,51,46,57,51,46,100,100,100,30.13,29.79,0,0,5,0.03
2013-10-28,63,49,41,54,46,41,100,91,61,29.81,29.71,0,0,3,0.00
2013-10-29,63,46,34,46,40,34,100,84,48,30.00,29.82,2,0,8,0.00
2013-10-30,58,46,36,52,44,36,100,96,80,30.14,30.00,0,0,2,0.00
2013-10-31,57,53,50,57,53,50,100,100,97,30.19,30.13,0,0,3,0.02
2013-11-1,64,54,47,59,53,47,100,97,82,30.19,29.89,3,0,8,0.01
2013-11-2,56,51,46,55,51,46,100,98,87,30.10,29.80,0,0,3,0.45
2013-11-3,52,46,41,52,46,41,100,100,98,30.17,30.09,0,0,0,0.03
2013-11-4,52,48,43,52,48,43,100,100,100,30.13,30.08,0,0,0,0.25
2013-11-5,54,53,51,54,53,51,100,100,100,30.20,30.06,0,0,0,0.50
2013-11-6,60,56,54,60,56,54,100,100,100,30.22,30.07,0,0,0,0.07
2013-11-7,55,52,46,55,52,46,100,100,100,30.12,29.94,0,0,1,0.47
2013-11-8,56,49,43,55,49,43,100,100,95,30.15,30.04,0,0,1,0.00
2013-11-9,54,49,41,53,49,41,100,99,94,30.04,29.93,1,0,3,0.00
2013-11-10,63,52,48,58,52,48,100,98,67,30.01,29.93,1,0,3,0.00
2013-11-11,60,53,49,56,52,49,100,96,86,30.01,29.91,4,1,5,0.01
2013-11-12,60,54,50,60,54,50,100,100,100,30.37,30.00,0,0,0,0.64
2013-11-13,60,52,42,58,52,42,100,100,95,30.40,30.24,0,0,1,0.00
2013-11-14,52,48,42,52,48,42,100,100,99,30.25,30.06,0,0,0,0.26
2013-11-15,51,46,40,51,46,40,100,100,100,30.07,29.67,0,0,0,0.08
2013-11-16,54,50,47,52,50,47,100,99,93,29.87,29.63,0,0,0,0.07
2013-11-17,55,51,48,55,50,48,100,99,95,29.97,29.87,0,0,0,0.14
2013-11-18,56,53,51,54,52,50,100,98,91,29.95,29.71,0,0,1,0.74
2013-11-19,55,50,39,55,50,39,100,100,98,29.94,29.70,0,0,2,0.19
2013-11-20,49,40,32,40,37,32,100,90,64,30.24,29.95,2,0,7,0.00
2013-11-21,52,38,26,31,27,24,100,70,33,30.42,30.25,2,0,5,0.00
2013-11-22,53,44,37,30,26,22,56,50,39,30.41,30.20,5,3,11,0.00
2013-11-23,59,49,44,35,30,25,57,48,39,30.18,30.00,6,3,10,0.00
2013-11-24,62,46,38,42,35,28,100,68,39,30.17,30.01,3,0,4,0.00
2013-11-25,58,42,34,47,40,34,100,92,59,30.25,30.18,0,0,0,0.00
2013-11-26,56,46,37,48,43,37,100,89,68,30.19,29.96,1,0,2,0.00
2013-11-27,60,50,44,44,42,39,90,75,57,29.95,29.82,3,1,4,0.00
2013-11-28,63,47,38,49,42,37,100,83,59,30.13,29.90,2,0,3,0.00
2013-11-29,55,44,34,52,44,34,100,98,88,30.28,30.13,0,0,0,0.00
2013-11-30,54,47,40,53,46,40,100,100,95,30.33,30.25,0,0,0,0.01
2013-12-1,53,52,50,53,52,50,100,100,100,30.27,30.04,0,0,1,0.48
2013-12-2,53,45,37,53,43,-100,100,98,100,30.04,29.97,0,-21,0,0.79
2013-12-3,43,1,43,42,-97,-100,98,2,98,30.17,30.02,1,-978,3,0.00
2013-12-4,42,1,42,24,-97,-100,49,1,49,30.24,30.17,0,-973,0,0.00
2013-12-5,-200,0,200,-100,-100,-100,0,0,100,30.20,30.05,0,-999,0,0.00
2013-12-6,-200,0,200,-100,-100,-100,0,0,100,30.04,29.79,0,-999,0,0.00
2013-12-7,32,1,32,21,-95,-100,65,3,64,30.33,29.96,1,-957,1,0.00
2013-12-8,37,1,37,21,-97,-100,53,1,53,30.50,30.33,0,-978,0,0.00
2013-12-9,42,2,42,29,-94,-100,60,3,60,30.51,30.45,1,-951,1,0.02
2013-12-10,43,1,43,33,-97,-100,69,2,69,30.47,30.28,1,-974,1,0.00
2013-12-11,49,2,49,38,-94,-100,65,3,65,30.28,30.11,1,-956,1,0.00
2013-12-12,-200,0,200,-100,-100,-100,0,0,100,30.14,30.06,0,-999,0,0.00
2013-12-13,-200,0,200,-100,-100,-100,0,0,100,30.35,30.27,0,-999,0,0.00
2013-12-14,46,17,42,46,-46,-100,100,38,100,30.40,30.31,0,-624,0,0.00
2013-12-15,56,46,39,54,46,39,100,100,95,30.41,30.35,0,0,0,0.00
2013-12-16,53,48,44,50,47,44,100,97,88,30.38,30.13,4,1,6,0.00
2013-12-17,51,43,36,49,43,36,100,99,92,30.17,30.11,1,0,1,0.00
2013-12-18,49,43,38,49,43,38,100,99,93,30.12,29.99,0,0,0,0.00
2013-12-19,44,36,29,40,35,29,100,96,79,30.25,30.09,1,0,1,0.00
2013-12-20,50,42,35,50,42,35,100,98,82,30.19,29.94,0,0,1,0.42
2013-12-21,51,49,45,51,49,45,100,100,100,30.23,29.99,0,0,0,0.08
2013-12-22,52,48,45,52,48,45,100,100,100,30.32,30.23,0,0,0,0.00
2013-12-23,51,49,46,51,49,46,100,100,100,30.46,30.30,0,0,0,0.11
2013-12-24,50,42,34,48,42,34,100,99,93,30.50,30.37,2,0,5,0.00
2013-12-25,53,42,37,45,40,37,100,93,73,30.38,30.27,3,1,5,0.00
2013-12-26,55,43,37,44,40,37,100,90,66,30.28,30.12,2,0,4,0.00
2013-12-27,51,41,36,49,41,36,100,99,92,30.30,30.10,1,0,1,0.00
2013-12-28,51,40,33,48,40,33,100,98,86,30.42,30.30,1,0,5,0.00
2013-12-29,49,42,37,44,40,37,100,94,82,30.36,30.16,2,1,4,0.00
2013-12-30,50,44,39,47,42,39,100,94,87,30.18,30.10,1,0,5,0.00
2013-12-31,52,43,38,51,43,38,100,100,97,30.26,30.18,0,0,0,0.00
2014-1-1,54,46,39,46,44,39,100,94,74,30.26,30.15,2,0,3,0.00
2014-1-2,54,46,40,50,45,40,100,97,86,30.17,30.04,1,0,2,0.00